createdAt,value
2022-10-05T00:00:06.679Z,55.00
2022-10-05T00:02:33.825Z,55.00
2022-10-05T00:05:00.629Z,55.20
2022-10-05T00:07:30.108Z,55.80
2022-10-05T00:09:58.865Z,55.00
2022-10-05T00:12:28.217Z,55.00
2022-10-05T00:15:01.774Z,54.80
2022-10-05T00:17:30.263Z,54.80
2022-10-05T00:19:57.560Z,54.70
2022-10-05T00:22:33.149Z,54.80
2022-10-05T00:25:02.355Z,54.80
2022-10-05T00:27:33.143Z,54.80
2022-10-05T00:30:03.711Z,54.80
2022-10-05T00:32:30.405Z,54.90
2022-10-05T00:34:57.738Z,54.90
2022-10-05T00:37:24.462Z,54.80
2022-10-05T00:39:51.247Z,55.60
2022-10-05T00:42:21.124Z,54.90
2022-10-05T00:45:00.404Z,55.00
2022-10-05T00:47:53.966Z,55.00
2022-10-05T00:50:46.909Z,55.00
2022-10-05T00:53:43.373Z,55.10
2022-10-05T00:56:55.572Z,55.10
2022-10-05T00:59:26.614Z,55.20
2022-10-05T01:02:21.521Z,55.00
2022-10-05T01:04:59.138Z,55.20
2022-10-05T01:07:42.109Z,55.20
2022-10-05T01:10:26.508Z,55.20
2022-10-05T01:12:59.008Z,55.30
2022-10-05T01:15:46.130Z,55.30
2022-10-05T01:18:17.158Z,55.20
2022-10-05T01:20:52.812Z,55.30
2022-10-05T01:23:50.421Z,55.40
2022-10-05T01:26:40.488Z,55.60
2022-10-05T01:29:43.860Z,55.50
2022-10-05T01:32:23.614Z,55.60
2022-10-05T01:35:02.415Z,55.60
2022-10-05T01:37:49.639Z,55.70
2022-10-05T01:40:24.446Z,55.80
2022-10-05T01:43:03.473Z,55.90
2022-10-05T01:46:04.947Z,56.90
2022-10-05T01:48:59.487Z,56.20
2022-10-05T01:51:41.343Z,56.20
2022-10-05T01:54:30.713Z,56.20
2022-10-05T01:57:30.055Z,56.40
2022-10-05T02:00:07.657Z,56.70
2022-10-05T02:03:07.567Z,56.60
2022-10-05T02:05:51.654Z,56.50
2022-10-05T02:08:31.163Z,56.60
2022-10-05T02:11:14.705Z,56.60
2022-10-05T02:13:53.011Z,56.70
2022-10-05T02:16:30.083Z,56.60
2022-10-05T02:19:04.947Z,56.60
2022-10-05T02:21:34.579Z,56.50
2022-10-05T02:24:08.647Z,56.40
2022-10-05T02:26:37.427Z,56.50
2022-10-05T02:29:09.775Z,56.50
2022-10-05T02:31:51.934Z,56.70
2022-10-05T02:34:23.069Z,56.80
2022-10-05T02:37:03.357Z,57.00
2022-10-05T02:39:51.012Z,57.40
2022-10-05T02:42:56.200Z,57.70
2022-10-05T02:45:43.998Z,57.60
2022-10-05T02:48:29.648Z,57.40
2022-10-05T02:51:22.775Z,57.40
2022-10-05T02:54:27.007Z,57.30
2022-10-05T02:56:57.079Z,57.20
2022-10-05T02:59:35.864Z,57.10
2022-10-05T03:02:10.582Z,57.40
2022-10-05T03:04:43.188Z,57.50
2022-10-05T03:07:21.841Z,57.40
2022-10-05T03:10:12.245Z,57.50
2022-10-05T03:12:41.886Z,57.50
2022-10-05T03:15:40.736Z,57.30
2022-10-05T03:18:30.723Z,57.50
2022-10-05T03:21:36.536Z,57.20
2022-10-05T03:24:40.872Z,57.40
2022-10-05T03:27:37.551Z,57.30
2022-10-05T03:30:16.626Z,57.40
2022-10-05T03:33:05.503Z,57.20
2022-10-05T03:35:40.657Z,57.30
2022-10-05T03:38:21.462Z,57.30
2022-10-05T03:41:03.967Z,57.30
2022-10-05T03:43:40.100Z,57.20
2022-10-05T03:46:19.247Z,57.10
2022-10-05T03:49:26.818Z,57.00
2022-10-05T03:52:02.696Z,57.00
2022-10-05T03:54:36.065Z,56.80
2022-10-05T03:57:23.240Z,56.70
2022-10-05T04:00:17.393Z,56.70
2022-10-05T04:03:00.636Z,56.60
2022-10-05T04:05:33.356Z,56.50
2022-10-05T04:08:11.238Z,56.50
2022-10-05T04:10:47.698Z,56.60
2022-10-05T04:13:26.262Z,56.60
2022-10-05T04:16:06.531Z,56.20
2022-10-05T04:18:43.733Z,56.30
2022-10-05T04:21:24.177Z,56.20
2022-10-05T04:24:14.612Z,56.20
2022-10-05T04:27:00.853Z,56.10
2022-10-05T04:29:44.726Z,56.00
2022-10-05T04:32:23.761Z,56.10
2022-10-05T04:35:24.371Z,56.00
2022-10-05T04:38:10.741Z,55.90
2022-10-05T04:40:58.553Z,55.70
2022-10-05T04:43:34.271Z,55.60
2022-10-05T04:46:32.925Z,55.50
2022-10-05T04:49:14.557Z,55.60
2022-10-05T04:51:51.124Z,55.20
2022-10-05T04:54:37.988Z,55.20
2022-10-05T04:57:17.749Z,55.20
2022-10-05T05:00:22.841Z,55.40
2022-10-05T05:03:13.686Z,55.10
2022-10-05T05:06:18.315Z,55.40
2022-10-05T05:09:19.127Z,55.10
2022-10-05T05:12:16.336Z,55.40
2022-10-05T05:14:53.523Z,55.20
2022-10-05T05:17:59.872Z,55.20
2022-10-05T05:20:32.706Z,55.20
2022-10-05T05:23:20.110Z,55.30
2022-10-05T05:26:26.602Z,56.30
2022-10-05T05:29:16.434Z,55.60
2022-10-05T05:31:59.308Z,55.60
2022-10-05T05:34:28.903Z,55.50
2022-10-05T05:37:19.860Z,55.50
2022-10-05T05:39:52.875Z,55.60
2022-10-05T05:42:40.608Z,55.70
2022-10-05T05:45:34.953Z,55.80
2022-10-05T05:48:13.820Z,55.70
2022-10-05T05:50:59.912Z,55.70
2022-10-05T05:53:36.964Z,55.60
2022-10-05T05:56:10.521Z,55.70
2022-10-05T05:58:41.655Z,55.80
2022-10-05T06:01:33.753Z,56.20
2022-10-05T06:04:22.649Z,56.20
2022-10-05T06:06:52.544Z,56.30
2022-10-05T06:09:38.357Z,56.40
2022-10-05T06:12:28.072Z,56.80
2022-10-05T06:15:03.874Z,56.50
2022-10-05T06:17:37.816Z,56.50
2022-10-05T06:20:16.771Z,56.50
2022-10-05T06:22:46.071Z,56.60
2022-10-05T06:25:40.224Z,57.00
2022-10-05T06:28:16.313Z,56.70
2022-10-05T06:31:12.349Z,56.70
2022-10-05T06:33:53.351Z,56.80
2022-10-05T06:36:54.482Z,56.80
2022-10-05T06:39:51.155Z,56.60
2022-10-05T06:42:19.506Z,56.80
2022-10-05T06:45:26.884Z,56.80
2022-10-05T06:48:47.160Z,56.90
2022-10-05T06:51:41.111Z,56.80
2022-10-05T06:54:50.222Z,56.70
2022-10-05T06:57:37.860Z,57.00
2022-10-05T07:00:17.157Z,57.00
2022-10-05T07:03:15.392Z,56.70
2022-10-05T07:06:02.604Z,56.70
2022-10-05T07:09:01.964Z,56.80
2022-10-05T07:12:13.655Z,57.00
2022-10-05T07:14:56.267Z,56.90
2022-10-05T07:17:38.433Z,56.80
2022-10-05T07:20:35.612Z,56.90
2022-10-05T07:23:24.686Z,56.70
2022-10-05T07:26:05.128Z,56.80
2022-10-05T07:28:37.751Z,56.80
2022-10-05T07:31:09.536Z,56.70
2022-10-05T07:33:52.583Z,56.50
2022-10-05T07:36:55.058Z,56.70
2022-10-05T07:40:00.528Z,56.90
2022-10-05T07:42:52.300Z,56.80
2022-10-05T07:45:31.955Z,56.60
2022-10-05T07:48:18.980Z,56.70
2022-10-05T07:51:11.282Z,56.80
2022-10-05T07:53:50.311Z,57.10
2022-10-05T07:56:43.418Z,56.90
2022-10-05T07:59:38.935Z,56.90
2022-10-05T08:02:44.539Z,56.80
2022-10-05T08:05:30.095Z,57.30
2022-10-05T08:08:14.334Z,57.10
2022-10-05T08:10:58.092Z,56.70
2022-10-05T08:13:39.658Z,56.80
2022-10-05T08:16:14.420Z,56.60
2022-10-05T08:18:54.672Z,56.40
2022-10-05T08:21:30.040Z,56.70
2022-10-05T08:24:05.190Z,56.60
2022-10-05T08:26:34.663Z,56.70
2022-10-05T08:29:16.377Z,56.50
2022-10-05T08:31:50.042Z,56.40
2022-10-05T08:34:43.056Z,56.60
2022-10-05T08:37:20.681Z,56.50
2022-10-05T08:39:56.430Z,56.20
2022-10-05T08:42:55.349Z,56.30
2022-10-05T08:45:44.231Z,56.40
2022-10-05T08:48:38.507Z,56.40
2022-10-05T08:51:11.506Z,56.00
2022-10-05T08:54:04.760Z,56.40
2022-10-05T08:57:13.979Z,56.30
2022-10-05T08:59:46.495Z,56.10
2022-10-05T09:02:20.967Z,56.10
2022-10-05T09:05:10.520Z,56.40
2022-10-05T09:08:04.309Z,56.40
2022-10-05T09:10:36.815Z,56.10
2022-10-05T09:13:09.254Z,55.80
2022-10-05T09:16:16.903Z,55.30
2022-10-05T09:18:52.572Z,55.10
2022-10-05T09:21:53.465Z,55.20
2022-10-05T09:24:48.250Z,55.20
2022-10-05T09:27:17.824Z,55.00
2022-10-05T09:29:53.078Z,55.10
2022-10-05T09:32:29.583Z,55.00
2022-10-05T09:35:17.840Z,54.90
2022-10-05T09:38:03.240Z,54.70
2022-10-05T09:40:51.307Z,55.20
2022-10-05T09:43:54.620Z,54.80
2022-10-05T09:46:46.824Z,55.00
2022-10-05T09:49:24.209Z,55.50
2022-10-05T09:52:16.435Z,55.00
2022-10-05T09:55:05.480Z,55.00
2022-10-05T09:58:17.017Z,54.30
2022-10-05T10:01:03.816Z,54.20
2022-10-05T10:04:24.681Z,53.40
2022-10-05T10:07:23.535Z,54.10
2022-10-05T10:10:16.246Z,53.80
2022-10-05T10:13:12.746Z,53.10
2022-10-05T10:15:54.649Z,53.70
2022-10-05T10:18:58.679Z,53.90
2022-10-05T10:22:02.972Z,53.80
2022-10-05T10:24:51.011Z,53.70
2022-10-05T10:27:30.038Z,53.80
2022-10-05T10:30:36.421Z,53.60
2022-10-05T10:33:21.985Z,54.00
2022-10-05T10:36:18.491Z,54.20
2022-10-05T10:39:00.031Z,54.50
2022-10-05T10:41:38.832Z,53.50
2022-10-05T10:44:14.327Z,53.70
2022-10-05T10:47:18.638Z,53.90
2022-10-05T10:50:24.198Z,53.90
2022-10-05T10:53:33.133Z,54.10
2022-10-05T10:56:17.995Z,54.50
2022-10-05T10:59:04.707Z,56.00
2022-10-05T11:01:59.611Z,55.80
2022-10-05T11:04:29.134Z,55.00
2022-10-05T11:06:58.621Z,55.00
2022-10-05T11:09:39.876Z,54.70
2022-10-05T11:12:37.923Z,55.20
2022-10-05T11:15:23.104Z,55.30
2022-10-05T11:18:16.242Z,55.00
2022-10-05T11:21:00.097Z,55.70
2022-10-05T11:24:04.396Z,53.90
2022-10-05T11:26:50.177Z,54.20
2022-10-05T11:29:54.389Z,53.80
2022-10-05T11:33:06.247Z,54.00
2022-10-05T11:35:58.809Z,54.10
2022-10-05T11:38:37.624Z,53.90
2022-10-05T11:41:31.652Z,53.90
2022-10-05T11:44:21.210Z,54.10
2022-10-05T11:47:08.966Z,53.90
2022-10-05T11:49:54.099Z,52.90
2022-10-05T11:52:44.915Z,52.50
2022-10-05T11:55:24.172Z,52.80
2022-10-05T11:58:07.499Z,52.90
2022-10-05T12:00:42.742Z,52.40
2022-10-05T12:03:31.574Z,52.30
2022-10-05T12:06:34.342Z,51.80
2022-10-05T12:09:23.076Z,50.60
2022-10-05T12:12:01.990Z,50.80
2022-10-05T12:14:59.127Z,51.20
2022-10-05T12:17:54.853Z,50.70
2022-10-05T12:20:48.942Z,51.60
2022-10-05T12:23:30.847Z,50.30
2022-10-05T12:26:04.484Z,50.20
2022-10-05T12:28:53.700Z,50.30
2022-10-05T12:31:54.498Z,50.10
2022-10-05T12:34:26.572Z,50.00
2022-10-05T12:37:04.127Z,50.10
2022-10-05T12:39:59.665Z,50.20
2022-10-05T12:42:30.378Z,50.70
2022-10-05T12:45:43.520Z,48.50
2022-10-05T12:48:39.320Z,48.10
2022-10-05T12:51:16.900Z,48.00
2022-10-05T12:54:08.348Z,48.00
2022-10-05T12:56:50.755Z,48.60
2022-10-05T12:59:45.055Z,48.80
2022-10-05T13:02:46.516Z,49.40
2022-10-05T13:05:40.724Z,49.40
2022-10-05T13:08:45.233Z,48.90
2022-10-05T13:11:20.803Z,50.20
2022-10-05T13:14:19.483Z,50.00
2022-10-05T13:17:08.585Z,50.80
2022-10-05T13:19:52.568Z,50.60
2022-10-05T13:22:28.093Z,50.30
2022-10-05T13:25:07.795Z,50.60
2022-10-05T13:27:40.159Z,50.80
2022-10-05T13:30:14.363Z,50.40
2022-10-05T13:32:47.873Z,50.80
2022-10-05T13:35:35.235Z,50.50
2022-10-05T13:38:34.093Z,50.70
2022-10-05T13:41:25.951Z,50.10
2022-10-05T13:44:11.033Z,49.60
2022-10-05T13:46:49.369Z,49.60
2022-10-05T13:49:59.480Z,49.50
2022-10-05T13:52:50.431Z,49.40
2022-10-05T13:55:22.811Z,49.70
2022-10-05T13:58:16.680Z,49.60
2022-10-05T14:00:51.904Z,49.70
2022-10-05T14:03:27.472Z,50.50
2022-10-05T14:05:57.622Z,49.90
2022-10-05T14:08:31.958Z,49.40
2022-10-05T14:10:58.947Z,49.80
2022-10-05T14:13:32.363Z,50.30
2022-10-05T14:16:13.445Z,50.70
2022-10-05T14:19:16.237Z,48.90
2022-10-05T14:21:49.804Z,48.90
2022-10-05T14:24:43.182Z,49.10
2022-10-05T14:27:21.694Z,49.00
2022-10-05T14:30:13.896Z,48.40
2022-10-05T14:33:06.954Z,49.40
2022-10-05T14:35:45.788Z,48.90
2022-10-05T14:38:26.588Z,48.90
2022-10-05T14:41:19.083Z,49.60
2022-10-05T14:43:56.821Z,48.90
2022-10-05T14:46:29.127Z,49.00
2022-10-05T14:49:10.872Z,49.10
2022-10-05T14:51:38.222Z,48.50
2022-10-05T14:54:46.587Z,48.30
2022-10-05T14:57:19.995Z,48.80
2022-10-05T15:00:11.093Z,48.10
2022-10-05T15:02:54.393Z,48.50
2022-10-05T15:05:45.985Z,48.30
2022-10-05T15:08:26.290Z,48.60
2022-10-05T15:11:00.680Z,47.50
2022-10-05T15:13:38.977Z,47.70
2022-10-05T15:16:20.231Z,47.10
2022-10-05T15:19:12.223Z,47.50
2022-10-05T15:21:42.350Z,47.80
2022-10-05T15:24:20.137Z,47.90
2022-10-05T15:26:53.682Z,47.90
2022-10-05T15:29:47.322Z,47.50
2022-10-05T15:32:19.575Z,47.90
2022-10-05T15:34:56.518Z,48.10
2022-10-05T15:37:32.994Z,48.00
2022-10-05T15:40:15.384Z,48.30
2022-10-05T15:42:43.075Z,48.60
2022-10-05T15:45:34.167Z,48.50
2022-10-05T15:48:06.771Z,48.90
2022-10-05T15:50:47.550Z,50.10
2022-10-05T15:53:27.216Z,49.60
2022-10-05T15:56:15.761Z,48.80
2022-10-05T15:58:51.703Z,48.40
2022-10-05T16:01:33.839Z,48.10
2022-10-05T16:04:20.398Z,48.20
2022-10-05T16:07:18.472Z,47.90
2022-10-05T16:10:19.759Z,48.10
2022-10-05T16:13:25.770Z,47.90
2022-10-05T16:16:21.011Z,47.60
2022-10-05T16:19:04.830Z,47.90
2022-10-05T16:21:52.879Z,47.40
2022-10-05T16:24:24.852Z,47.40
2022-10-05T16:27:07.054Z,47.90
2022-10-05T16:30:03.099Z,48.10
2022-10-05T16:32:46.695Z,48.40
2022-10-05T16:35:25.541Z,48.40
2022-10-05T16:38:10.277Z,48.40
2022-10-05T16:40:58.459Z,48.50
2022-10-05T16:43:37.319Z,48.40
2022-10-05T16:46:12.345Z,48.20
2022-10-05T16:49:14.247Z,49.00
2022-10-05T16:52:02.843Z,49.00
2022-10-05T16:54:48.366Z,49.20
2022-10-05T16:57:24.168Z,48.90
2022-10-05T17:00:15.668Z,49.20
2022-10-05T17:03:01.794Z,49.50
2022-10-05T17:06:04.552Z,49.70
2022-10-05T17:09:19.042Z,49.60
2022-10-05T17:11:58.069Z,49.70
2022-10-05T17:14:49.160Z,49.70
2022-10-05T17:17:30.894Z,49.90
2022-10-05T17:20:23.576Z,50.10
2022-10-05T17:23:20.376Z,50.00
2022-10-05T17:25:56.099Z,50.10
2022-10-05T17:28:24.720Z,50.40
2022-10-05T17:31:22.419Z,50.40
2022-10-05T17:34:17.790Z,50.30
2022-10-05T17:36:54.122Z,50.50
2022-10-05T17:39:23.662Z,50.30
2022-10-05T17:41:50.501Z,50.50
2022-10-05T17:44:20.566Z,50.50
2022-10-05T17:46:53.976Z,50.80
2022-10-05T17:49:26.696Z,50.90
2022-10-05T17:52:12.140Z,50.80
2022-10-05T17:55:20.192Z,51.00
2022-10-05T17:57:46.998Z,50.90
2022-10-05T18:00:25.767Z,51.00
2022-10-05T18:02:55.756Z,50.90
2022-10-05T18:05:28.114Z,50.90
2022-10-05T18:08:13.123Z,50.90
2022-10-05T18:11:10.999Z,51.10
2022-10-05T18:13:45.402Z,51.00
2022-10-05T18:16:13.448Z,51.10
2022-10-05T18:18:43.213Z,50.90
2022-10-05T18:21:18.343Z,51.10
2022-10-05T18:24:01.593Z,51.20
2022-10-05T18:26:34.200Z,51.20
2022-10-05T18:29:13.948Z,51.30
2022-10-05T18:32:06.720Z,51.40
2022-10-05T18:34:54.467Z,51.80
2022-10-05T18:37:21.493Z,51.60
2022-10-05T18:39:51.055Z,51.60
2022-10-05T18:42:27.065Z,51.80
2022-10-05T18:45:06.381Z,51.80
2022-10-05T18:48:07.952Z,51.90
2022-10-05T18:50:50.720Z,52.10
2022-10-05T18:53:42.580Z,53.50
2022-10-05T18:56:38.314Z,53.20
2022-10-05T18:59:37.244Z,52.80
2022-10-05T19:02:40.270Z,52.30
2022-10-05T19:05:46.228Z,52.30
2022-10-05T19:08:49.594Z,52.00
2022-10-05T19:11:57.755Z,52.10
2022-10-05T19:14:46.180Z,52.20
2022-10-05T19:17:41.918Z,52.40
2022-10-05T19:20:25.154Z,52.70
2022-10-05T19:23:09.404Z,52.60
2022-10-05T19:25:43.236Z,53.00
2022-10-05T19:28:37.305Z,53.20
2022-10-05T19:31:37.623Z,53.80
2022-10-05T19:34:16.588Z,54.70
2022-10-05T19:37:34.564Z,55.00
2022-10-05T19:40:09.688Z,55.20
2022-10-05T19:43:02.454Z,55.20
2022-10-05T19:45:33.316Z,55.30
2022-10-05T19:48:27.866Z,55.20
2022-10-05T19:50:59.329Z,55.30
2022-10-05T19:53:45.884Z,55.30
2022-10-05T19:56:25.305Z,55.70
2022-10-05T19:58:56.387Z,56.40
2022-10-05T20:01:33.494Z,56.50
2022-10-05T20:04:00.322Z,56.50
2022-10-05T20:06:29.411Z,57.30
2022-10-05T20:09:00.262Z,58.20
2022-10-05T20:11:28.254Z,58.50
2022-10-05T20:13:55.057Z,58.90
2022-10-05T20:16:50.979Z,59.00
2022-10-05T20:19:55.189Z,59.40
2022-10-05T20:22:35.297Z,59.70
2022-10-05T20:25:03.985Z,59.70
2022-10-05T20:27:39.738Z,59.90
2022-10-05T20:30:07.541Z,60.00
2022-10-05T20:32:34.356Z,60.30
2022-10-05T20:35:01.221Z,60.20
2022-10-05T20:37:28.155Z,60.30
2022-10-05T20:39:54.894Z,60.40
2022-10-05T20:42:23.778Z,60.80
2022-10-05T20:44:55.783Z,61.10
2022-10-05T20:47:23.921Z,61.00
2022-10-05T20:49:50.649Z,61.10
2022-10-05T20:52:17.400Z,61.10
2022-10-05T20:57:15.795Z,61.30
2022-10-05T20:59:42.565Z,61.20
2022-10-05T21:02:09.823Z,61.30
2022-10-05T21:04:40.987Z,61.50
2022-10-05T21:07:08.980Z,61.50
2022-10-05T21:09:38.242Z,61.50
2022-10-05T21:12:05.246Z,61.70
2022-10-05T21:14:34.294Z,61.90
2022-10-05T21:17:01.859Z,62.00
2022-10-05T21:19:29.436Z,62.00
2022-10-05T21:21:59.588Z,62.20
2022-10-05T21:24:29.140Z,61.60
2022-10-05T21:26:57.428Z,61.60
2022-10-05T21:29:24.185Z,61.80
2022-10-05T21:31:51.143Z,61.60
2022-10-05T21:34:18.022Z,61.40
2022-10-05T21:36:44.750Z,61.30
2022-10-05T21:39:11.675Z,61.20
2022-10-05T21:41:38.476Z,61.20
2022-10-05T21:44:06.710Z,61.20
2022-10-05T21:46:36.129Z,61.20
2022-10-05T21:49:03.013Z,61.20
2022-10-05T21:51:29.860Z,61.10
2022-10-05T21:54:15.522Z,61.10
2022-10-05T21:56:46.475Z,61.30
2022-10-05T21:59:16.730Z,61.20
2022-10-05T22:01:43.416Z,61.30
2022-10-05T22:04:10.252Z,61.30
2022-10-05T22:06:37.099Z,61.40
2022-10-05T22:09:05.120Z,61.40
2022-10-05T22:11:32.570Z,61.50
2022-10-05T22:14:02.628Z,61.70
2022-10-05T22:16:38.053Z,61.80
2022-10-05T22:19:10.582Z,61.80
2022-10-05T22:21:41.390Z,61.70
2022-10-05T22:24:09.233Z,61.70
2022-10-05T22:26:36.161Z,61.60
2022-10-05T22:29:03.676Z,61.70
2022-10-05T22:31:30.552Z,61.80
2022-10-05T22:33:57.348Z,61.90
2022-10-05T22:36:24.168Z,62.70
2022-10-05T22:38:50.880Z,62.10
2022-10-05T22:41:20.554Z,62.20
2022-10-05T22:43:50.056Z,62.30
2022-10-05T22:46:17.560Z,62.50
2022-10-05T22:48:44.331Z,62.60
2022-10-05T22:51:11.164Z,62.70
2022-10-05T22:53:38.293Z,62.70
2022-10-05T22:56:10.725Z,62.80
2022-10-05T22:58:38.239Z,62.70
2022-10-05T23:01:07.494Z,62.70
2022-10-05T23:03:34.495Z,62.80
2022-10-05T23:06:07.108Z,62.60
2022-10-05T23:08:35.644Z,62.50
2022-10-05T23:11:07.535Z,62.50
2022-10-05T23:13:34.375Z,63.20
2022-10-05T23:16:13.423Z,62.50
2022-10-05T23:18:40.369Z,62.40
2022-10-05T23:21:08.645Z,62.30
2022-10-05T23:23:37.363Z,62.20
2022-10-05T23:26:06.011Z,62.00
2022-10-05T23:28:33.849Z,62.00
2022-10-05T23:31:02.816Z,61.90
2022-10-05T23:33:30.116Z,61.70
2022-10-05T23:35:58.518Z,61.70
2022-10-05T23:38:26.173Z,61.60
2022-10-05T23:40:53.244Z,61.70
2022-10-05T23:43:20.204Z,61.60
2022-10-05T23:45:47.635Z,61.50
2022-10-05T23:48:14.552Z,61.50
2022-10-05T23:50:43.502Z,61.30
2022-10-05T23:53:10.231Z,61.10
2022-10-05T23:55:37.389Z,61.00
2022-10-05T23:58:04.757Z,61.70
